sensor_id;sensor_type;location;lat;lon;timestamp;pressure;altitude;pressure_sealevel;temperature;humidity
76311;BME280;65120;59.304;18.294;2023-04-01T00:01:28;100873.00;;;-2.67;59.79
76311;BME280;65120;59.304;18.294;2023-04-01T00:03:55;100878.91;;;-2.68;59.61
76311;BME280;65120;59.304;18.294;2023-04-01T00:06:22;100874.63;;;-2.69;59.67
76311;BME280;65120;59.304;18.294;2023-04-01T00:08:50;100874.56;;;-2.71;60.09
76311;BME280;65120;59.304;18.294;2023-04-01T00:11:18;100877.94;;;-2.72;60.05
76311;BME280;65120;59.304;18.294;2023-04-01T00:13:45;100884.75;;;-2.72;60.17
76311;BME280;65120;59.304;18.294;2023-04-01T00:16:12;100890.69;;;-2.73;59.91
76311;BME280;65120;59.304;18.294;2023-04-01T00:18:40;100883.81;;;-2.74;60.13
76311;BME280;65120;59.304;18.294;2023-04-01T00:21:07;100891.47;;;-2.74;60.24
76311;BME280;65120;59.304;18.294;2023-04-01T00:23:34;100895.72;;;-2.75;60.35
76311;BME280;65120;59.304;18.294;2023-04-01T00:26:03;100888.88;;;-2.76;60.28
76311;BME280;65120;59.304;18.294;2023-04-01T00:28:30;100888.81;;;-2.77;60.32
76311;BME280;65120;59.304;18.294;2023-04-01T00:30:57;100893.91;;;-2.77;60.55
76311;BME280;65120;59.304;18.294;2023-04-01T00:33:24;100892.13;;;-2.80;60.69
76311;BME280;65120;59.304;18.294;2023-04-01T00:35:52;100889.56;;;-2.80;60.53
76311;BME280;65120;59.304;18.294;2023-04-01T00:38:19;100890.31;;;-2.82;60.56
76311;BME280;65120;59.304;18.294;2023-04-01T00:40:47;100895.44;;;-2.82;60.81
76311;BME280;65120;59.304;18.294;2023-04-01T00:43:17;100898.81;;;-2.83;60.93
76311;BME280;65120;59.304;18.294;2023-04-01T00:45:45;100897.00;;;-2.86;61.03
76311;BME280;65120;59.304;18.294;2023-04-01T00:48:15;100889.34;;;-2.86;61.12
76311;BME280;65120;59.304;18.294;2023-04-01T00:50:45;100890.09;;;-2.88;60.83
76311;BME280;65120;59.304;18.294;2023-04-01T00:53:13;100895.16;;;-2.90;61.17
76311;BME280;65120;59.304;18.294;2023-04-01T00:55:43;100890.84;;;-2.91;60.99
76311;BME280;65120;59.304;18.294;2023-04-01T00:58:17;100893.34;;;-2.92;61.14
76311;BME280;65120;59.304;18.294;2023-04-01T01:00:48;100891.56;;;-2.95;61.35
76311;BME280;65120;59.304;18.294;2023-04-01T01:03:17;100899.16;;;-2.97;61.29
76311;BME280;65120;59.304;18.294;2023-04-01T01:06:00;100898.34;;;-2.96;61.61
76311;BME280;65120;59.304;18.294;2023-04-01T01:08:39;100900.91;;;-2.96;61.84
76311;BME280;65120;59.304;18.294;2023-04-01T01:11:10;100898.34;;;-2.96;61.66
76311;BME280;65120;59.304;18.294;2023-04-01T01:13:45;100901.69;;;-2.97;61.58
76311;BME280;65120;59.304;18.294;2023-04-01T01:16:21;100904.22;;;-2.98;61.85
76311;BME280;65120;59.304;18.294;2023-04-01T01:18:55;100908.47;;;-2.99;61.73
76311;BME280;65120;59.304;18.294;2023-04-01T01:21:46;100909.31;;;-2.98;61.67
76311;BME280;65120;59.304;18.294;2023-04-01T01:24:37;100904.09;;;-3.01;61.77
76311;BME280;65120;59.304;18.294;2023-04-01T01:27:10;100909.22;;;-3.01;61.94
76311;BME280;65120;59.304;18.294;2023-04-01T01:35:46;100915.00;;;-3.05;61.97
76311;BME280;65120;59.304;18.294;2023-04-01T01:38:16;100916.69;;;-3.06;62.17
76311;BME280;65120;59.304;18.294;2023-04-01T01:40:45;100910.72;;;-3.06;62.20
76311;BME280;65120;59.304;18.294;2023-04-01T01:43:17;100917.56;;;-3.05;62.13
76311;BME280;65120;59.304;18.294;2023-04-01T01:45:49;100914.13;;;-3.06;62.17
76311;BME280;65120;59.304;18.294;2023-04-01T01:48:17;100914.13;;;-3.06;62.14
76311;BME280;65120;59.304;18.294;2023-04-01T01:50:47;100910.75;;;-3.05;62.30
76311;BME280;65120;59.304;18.294;2023-04-01T01:53:15;100920.97;;;-3.05;62.30
76311;BME280;65120;59.304;18.294;2023-04-01T01:55:43;100922.66;;;-3.05;62.34
76311;BME280;65120;59.304;18.294;2023-04-01T01:58:14;100919.34;;;-3.03;62.33
76311;BME280;65120;59.304;18.294;2023-04-01T02:00:47;100920.22;;;-3.02;62.23
76311;BME280;65120;59.304;18.294;2023-04-01T02:03:15;100914.22;;;-3.04;62.44
76311;BME280;65120;59.304;18.294;2023-04-01T02:05:44;100923.66;;;-3.02;62.45
76311;BME280;65120;59.304;18.294;2023-04-01T02:08:15;100925.41;;;-3.01;62.41
76311;BME280;65120;59.304;18.294;2023-04-01T02:10:46;100927.16;;;-3.00;62.42
76311;BME280;65120;59.304;18.294;2023-04-01T02:13:18;100934.81;;;-3.00;62.37
76311;BME280;65120;59.304;18.294;2023-04-01T02:15:50;100932.25;;;-3.00;62.28
76311;BME280;65120;59.304;18.294;2023-04-01T02:18:22;100931.38;;;-3.00;62.67
76311;BME280;65120;59.304;18.294;2023-04-01T02:20:50;100929.69;;;-3.00;62.69
76311;BME280;65120;59.304;18.294;2023-04-01T02:23:19;100938.31;;;-2.98;62.72
76311;BME280;65120;59.304;18.294;2023-04-01T02:25:47;100930.63;;;-2.98;62.63
76311;BME280;65120;59.304;18.294;2023-04-01T02:28:14;100929.81;;;-2.97;62.79
76311;BME280;65120;59.304;18.294;2023-04-01T02:30:46;100927.25;;;-2.97;62.82
76311;BME280;65120;59.304;18.294;2023-04-01T02:33:15;100923.91;;;-2.96;62.84
76311;BME280;65120;59.304;18.294;2023-04-01T02:35:42;100926.47;;;-2.96;62.96
76311;BME280;65120;59.304;18.294;2023-04-01T02:38:09;100930.75;;;-2.95;62.91
76311;BME280;65120;59.304;18.294;2023-04-01T02:40:46;100928.19;;;-2.95;62.58
76311;BME280;65120;59.304;18.294;2023-04-01T02:43:13;100929.94;;;-2.94;62.77
76311;BME280;65120;59.304;18.294;2023-04-01T02:45:40;100935.94;;;-2.93;63.07
76311;BME280;65120;59.304;18.294;2023-04-01T02:48:07;100930.00;;;-2.92;62.89
76311;BME280;65120;59.304;18.294;2023-04-01T02:50:34;100925.75;;;-2.91;62.90
76311;BME280;65120;59.304;18.294;2023-04-01T02:53:01;100932.59;;;-2.90;62.96
76311;BME280;65120;59.304;18.294;2023-04-01T02:55:31;100928.38;;;-2.90;62.66
76311;BME280;65120;59.304;18.294;2023-04-01T02:57:59;100927.50;;;-2.90;62.71
76311;BME280;65120;59.304;18.294;2023-04-01T03:00:27;100932.59;;;-2.90;62.78
76311;BME280;65120;59.304;18.294;2023-04-01T03:02:54;100927.50;;;-2.90;62.73
76311;BME280;65120;59.304;18.294;2023-04-01T03:05:21;100941.09;;;-2.91;62.80
76311;BME280;65120;59.304;18.294;2023-04-01T03:07:48;100935.94;;;-2.93;62.85
76311;BME280;65120;59.304;18.294;2023-04-01T03:10:15;100941.84;;;-2.94;62.90
76311;BME280;65120;59.304;18.294;2023-04-01T03:12:42;100940.13;;;-2.95;63.17
76311;BME280;65120;59.304;18.294;2023-04-01T03:15:12;100944.34;;;-2.96;63.17
76311;BME280;65120;59.304;18.294;2023-04-01T03:17:40;100942.59;;;-2.97;63.22
76311;BME280;65120;59.304;18.294;2023-04-01T03:20:09;100950.34;;;-2.95;63.26
76311;BME280;65120;59.304;18.294;2023-04-01T03:22:36;100947.78;;;-2.95;63.16
76311;BME280;65120;59.304;18.294;2023-04-01T03:25:05;100948.66;;;-2.95;63.23
76311;BME280;65120;59.304;18.294;2023-04-01T03:27:32;100956.31;;;-2.95;63.05
76311;BME280;65120;59.304;18.294;2023-04-01T03:29:59;100954.59;;;-2.96;63.22
76311;BME280;65120;59.304;18.294;2023-04-01T03:32:28;100963.03;;;-2.97;63.04
76311;BME280;65120;59.304;18.294;2023-04-01T03:34:55;100965.59;;;-2.97;63.15
76311;BME280;65120;59.304;18.294;2023-04-01T03:37:23;100963.03;;;-2.97;63.37
76311;BME280;65120;59.304;18.294;2023-04-01T03:39:50;100968.16;;;-2.97;63.17
76311;BME280;65120;59.304;18.294;2023-04-01T03:42:17;100961.31;;;-2.98;63.15
76311;BME280;65120;59.304;18.294;2023-04-01T03:44:43;100964.69;;;-2.99;63.07
76311;BME280;65120;59.304;18.294;2023-04-01T03:47:10;100963.75;;;-3.01;63.22
76311;BME280;65120;59.304;18.294;2023-04-01T03:49:39;100972.28;;;-3.00;63.35
76311;BME280;65120;59.304;18.294;2023-04-01T03:52:09;100971.41;;;-3.01;63.59
76311;BME280;65120;59.304;18.294;2023-04-01T03:54:36;100981.63;;;-3.01;63.35
76311;BME280;65120;59.304;18.294;2023-04-01T03:57:03;100981.63;;;-3.01;63.69
76311;BME280;65120;59.304;18.294;2023-04-01T03:59:30;100980.81;;;-3.00;63.29
76311;BME280;65120;59.304;18.294;2023-04-01T04:01:56;100979.94;;;-3.00;63.41
76311;BME280;65120;59.304;18.294;2023-04-01T04:04:23;100982.44;;;-3.02;63.49
76311;BME280;65120;59.304;18.294;2023-04-01T04:06:53;100978.13;;;-3.03;63.37
76311;BME280;65120;59.304;18.294;2023-04-01T04:09:20;100986.75;;;-3.01;63.59
76311;BME280;65120;59.304;18.294;2023-04-01T04:11:47;100985.88;;;-3.01;63.58
76311;BME280;65120;59.304;18.294;2023-04-01T04:14:14;100994.34;;;-3.02;63.59
76311;BME280;65120;59.304;18.294;2023-04-01T04:16:41;101000.31;;;-3.02;63.74
76311;BME280;65120;59.304;18.294;2023-04-01T04:19:08;100996.09;;;-3.01;63.78
76311;BME280;65120;59.304;18.294;2023-04-01T04:21:35;100994.34;;;-3.02;63.80
76311;BME280;65120;59.304;18.294;2023-04-01T04:24:03;101002.09;;;-3.01;63.89
76311;BME280;65120;59.304;18.294;2023-04-01T04:26:30;101004.63;;;-3.01;63.90
76311;BME280;65120;59.304;18.294;2023-04-01T04:28:57;101008.94;;;-3.00;64.01
76311;BME280;65120;59.304;18.294;2023-04-01T04:31:25;101010.63;;;-3.00;64.18
76311;BME280;65120;59.304;18.294;2023-04-01T04:33:52;101009.00;;;-2.98;63.85
76311;BME280;65120;59.304;18.294;2023-04-01T04:36:21;101017.53;;;-2.98;64.04
76311;BME280;65120;59.304;18.294;2023-04-01T04:38:48;101019.22;;;-2.98;64.12
76311;BME280;65120;59.304;18.294;2023-04-01T04:41:17;101025.25;;;-2.96;64.30
76311;BME280;65120;59.304;18.294;2023-04-01T04:43:49;101026.94;;;-2.97;64.18
76311;BME280;65120;59.304;18.294;2023-04-01T04:46:17;101026.16;;;-2.96;63.69
76311;BME280;65120;59.304;18.294;2023-04-01T04:48:44;101033.84;;;-2.94;64.35
76311;BME280;65120;59.304;18.294;2023-04-01T04:51:13;101031.38;;;-2.92;64.02
76311;BME280;65120;59.304;18.294;2023-04-01T04:53:41;101032.25;;;-2.92;64.15
76311;BME280;65120;59.304;18.294;2023-04-01T04:56:08;101023.63;;;-2.94;64.44
76311;BME280;65120;59.304;18.294;2023-04-01T04:58:37;101037.47;;;-2.89;64.26
76311;BME280;65120;59.304;18.294;2023-04-01T05:01:08;101033.31;;;-2.87;64.56
76311;BME280;65120;59.304;18.294;2023-04-01T05:03:36;101031.66;;;-2.85;64.47
76311;BME280;65120;59.304;18.294;2023-04-01T05:06:04;101035.25;;;-2.81;64.65
76311;BME280;65120;59.304;18.294;2023-04-01T05:08:31;101034.50;;;-2.79;65.11
76311;BME280;65120;59.304;18.294;2023-04-01T05:10:58;101047.44;;;-2.74;65.10
76311;BME280;65120;59.304;18.294;2023-04-01T05:13:25;101042.44;;;-2.71;64.82
76311;BME280;65120;59.304;18.294;2023-04-01T05:15:53;101042.56;;;-2.68;64.55
76311;BME280;65120;59.304;18.294;2023-04-01T05:18:20;101046.06;;;-2.66;64.89
76311;BME280;65120;59.304;18.294;2023-04-01T05:20:48;101050.53;;;-2.60;64.90
76311;BME280;65120;59.304;18.294;2023-04-01T05:23:16;101049.69;;;-2.61;64.91
76311;BME280;65120;59.304;18.294;2023-04-01T05:25:43;101061.88;;;-2.54;64.53
76311;BME280;65120;59.304;18.294;2023-04-01T05:28:10;101057.69;;;-2.52;64.61
76311;BME280;65120;59.304;18.294;2023-04-01T05:30:40;101062.06;;;-2.49;64.69
76311;BME280;65120;59.304;18.294;2023-04-01T05:33:10;101067.28;;;-2.46;64.78
76311;BME280;65120;59.304;18.294;2023-04-01T05:35:37;101070.84;;;-2.42;64.91
76311;BME280;65120;59.304;18.294;2023-04-01T05:38:04;101072.66;;;-2.40;64.49
76311;BME280;65120;59.304;18.294;2023-04-01T05:40:31;101069.41;;;-2.36;64.83
76311;BME280;65120;59.304;18.294;2023-04-01T05:42:59;101077.13;;;-2.34;64.88
76311;BME280;65120;59.304;18.294;2023-04-01T05:45:26;101080.66;;;-2.31;64.83
76311;BME280;65120;59.304;18.294;2023-04-01T05:47:53;101079.91;;;-2.28;64.98
76311;BME280;65120;59.304;18.294;2023-04-01T05:50:21;101079.16;;;-2.26;64.73
76311;BME280;65120;59.304;18.294;2023-04-01T05:52:48;101080.97;;;-2.23;64.67
76311;BME280;65120;59.304;18.294;2023-04-01T05:55:15;101086.19;;;-2.20;64.59
76311;BME280;65120;59.304;18.294;2023-04-01T05:57:44;101082.97;;;-2.16;64.90
76311;BME280;65120;59.304;18.294;2023-04-01T06:00:12;101083.88;;;-2.14;64.83
76311;BME280;65120;59.304;18.294;2023-04-01T06:02:40;101085.78;;;-2.08;65.04
76311;BME280;65120;59.304;18.294;2023-04-01T06:05:14;101095.28;;;-2.06;65.33
76311;BME280;65120;59.304;18.294;2023-04-01T06:07:43;101092.81;;;-2.03;65.02
76311;BME280;65120;59.304;18.294;2023-04-01T06:10:13;101088.72;;;-1.99;65.00
76311;BME280;65120;59.304;18.294;2023-04-01T06:12:48;101097.41;;;-1.94;65.31
76311;BME280;65120;59.304;18.294;2023-04-01T06:15:25;101099.28;;;-1.90;65.30
76311;BME280;65120;59.304;18.294;2023-04-01T06:18:15;101090.91;;;-1.86;65.10
76311;BME280;65120;59.304;18.294;2023-04-01T06:20:54;101097.13;;;-1.79;65.38
76311;BME280;65120;59.304;18.294;2023-04-01T06:23:45;101095.59;;;-1.74;65.10
76311;BME280;65120;59.304;18.294;2023-04-01T06:26:23;101100.06;;;-1.68;65.55
76311;BME280;65120;59.304;18.294;2023-04-01T06:29:22;101093.44;;;-1.63;65.01
76311;BME280;65120;59.304;18.294;2023-04-01T06:32:05;101099.66;;;-1.56;65.28
76311;BME280;65120;59.304;18.294;2023-04-01T06:34:51;101105.88;;;-1.50;65.13
76311;BME280;65120;59.304;18.294;2023-04-01T06:37:43;101108.66;;;-1.44;65.28
76311;BME280;65120;59.304;18.294;2023-04-01T06:40:27;101105.44;;;-1.38;65.15
76311;BME280;65120;59.304;18.294;2023-04-01T06:43:04;101112.47;;;-1.32;65.65
76311;BME280;65120;59.304;18.294;2023-04-01T06:45:36;101106.69;;;-1.27;65.65
76311;BME280;65120;59.304;18.294;2023-04-01T06:48:29;101114.63;;;-1.19;65.48
76311;BME280;65120;59.304;18.294;2023-04-01T06:51:12;101119.22;;;-1.10;65.12
76311;BME280;65120;59.304;18.294;2023-04-01T06:53:46;101121.16;;;-1.03;65.14
76311;BME280;65120;59.304;18.294;2023-04-01T06:56:20;101123.03;;;-0.98;64.71
76311;BME280;65120;59.304;18.294;2023-04-01T06:58:51;101118.22;;;-0.88;65.41
76311;BME280;65120;59.304;18.294;2023-04-01T07:01:24;101117.63;;;-0.81;65.58
76311;BME280;65120;59.304;18.294;2023-04-01T07:03:55;101129.03;;;-0.72;65.18
76311;BME280;65120;59.304;18.294;2023-04-01T07:06:28;101133.56;;;-0.64;65.38
76311;BME280;65120;59.304;18.294;2023-04-01T07:08:59;101139.94;;;-0.53;64.41
76311;BME280;65120;59.304;18.294;2023-04-01T07:11:32;101142.03;;;-0.40;64.73
76311;BME280;65120;59.304;18.294;2023-04-01T07:14:03;101146.75;;;-0.27;64.51
76311;BME280;65120;59.304;18.294;2023-04-01T07:16:36;101141.22;;;-0.12;64.49
76311;BME280;65120;59.304;18.294;2023-04-01T07:19:10;101148.47;;;0.02;64.28
76311;BME280;65120;59.304;18.294;2023-04-01T07:21:42;101146.31;;;0.15;63.79
76311;BME280;65120;59.304;18.294;2023-04-01T07:24:16;101141.53;;;0.28;63.28
76311;BME280;65120;59.304;18.294;2023-04-01T07:26:48;101150.50;;;0.40;62.48
76311;BME280;65120;59.304;18.294;2023-04-01T07:29:16;101149.13;;;0.53;62.71
76311;BME280;65120;59.304;18.294;2023-04-01T07:32:07;101146.19;;;0.71;62.88
76311;BME280;65120;59.304;18.294;2023-04-01T07:34:42;101157.00;;;0.89;62.78
76311;BME280;65120;59.304;18.294;2023-04-01T07:37:15;101153.94;;;1.04;62.04
76311;BME280;65120;59.304;18.294;2023-04-01T07:39:49;101158.75;;;1.24;61.74
76311;BME280;65120;59.304;18.294;2023-04-01T07:42:29;101156.59;;;1.41;60.89
76311;BME280;65120;59.304;18.294;2023-04-01T07:45:03;101162.13;;;1.56;61.85
76311;BME280;65120;59.304;18.294;2023-04-01T07:47:41;101158.28;;;1.75;60.64
76311;BME280;65120;59.304;18.294;2023-04-01T07:50:18;101162.09;;;1.91;60.35
76311;BME280;65120;59.304;18.294;2023-04-01T07:52:54;101156.34;;;2.02;58.92
76311;BME280;65120;59.304;18.294;2023-04-01T07:55:30;101161.03;;;2.20;57.88
76311;BME280;65120;59.304;18.294;2023-04-01T07:58:04;101165.66;;;2.35;58.27
76311;BME280;65120;59.304;18.294;2023-04-01T08:00:37;101166.81;;;2.50;58.02
76311;BME280;65120;59.304;18.294;2023-04-01T08:03:18;101168.03;;;2.67;57.81
76311;BME280;65120;59.304;18.294;2023-04-01T08:05:53;101168.41;;;2.85;56.98
76311;BME280;65120;59.304;18.294;2023-04-01T08:08:31;101175.50;;;2.99;56.95
76311;BME280;65120;59.304;18.294;2023-04-01T08:11:06;101168.97;;;3.16;56.81
76311;BME280;65120;59.304;18.294;2023-04-01T08:13:40;101173.59;;;3.35;57.07
76311;BME280;65120;59.304;18.294;2023-04-01T08:16:18;101169.66;;;3.56;56.38
76311;BME280;65120;59.304;18.294;2023-04-01T08:18:54;101170.81;;;3.73;55.94
76311;BME280;65120;59.304;18.294;2023-04-01T08:21:25;101171.03;;;3.87;55.66
76311;BME280;65120;59.304;18.294;2023-04-01T08:23:56;101172.09;;;4.01;55.18
76311;BME280;65120;59.304;18.294;2023-04-01T08:26:30;101170.53;;;4.14;55.34
76311;BME280;65120;59.304;18.294;2023-04-01T08:29:04;101175.84;;;4.23;54.29
76311;BME280;65120;59.304;18.294;2023-04-01T08:31:38;101176.72;;;4.25;53.24
76311;BME280;65120;59.304;18.294;2023-04-01T08:34:14;101182.84;;;4.31;53.10
76311;BME280;65120;59.304;18.294;2023-04-01T08:36:46;101182.94;;;4.37;53.24
76311;BME280;65120;59.304;18.294;2023-04-01T08:39:19;101177.88;;;4.46;53.28
76311;BME280;65120;59.304;18.294;2023-04-01T08:42:10;101183.16;;;4.55;53.45
76311;BME280;65120;59.304;18.294;2023-04-01T08:48:04;101191.06;;;4.66;52.39
76311;BME280;65120;59.304;18.294;2023-04-01T08:50:52;101187.66;;;4.70;52.37
76311;BME280;65120;59.304;18.294;2023-04-01T08:53:30;101195.47;;;4.74;52.01
76311;BME280;65120;59.304;18.294;2023-04-01T08:56:09;101189.47;;;4.76;51.87
76311;BME280;65120;59.304;18.294;2023-04-01T08:58:55;101194.59;;;4.74;49.31
76311;BME280;65120;59.304;18.294;2023-04-01T09:01:42;101211.84;;;4.73;50.77
76311;BME280;65120;59.304;18.294;2023-04-01T09:04:25;101196.28;;;4.72;50.60
76311;BME280;65120;59.304;18.294;2023-04-01T09:07:06;101202.38;;;4.74;50.58
76311;BME280;65120;59.304;18.294;2023-04-01T09:10:14;101193.78;;;4.77;51.15
76311;BME280;65120;59.304;18.294;2023-04-01T09:12:55;101210.25;;;4.82;50.87
76311;BME280;65120;59.304;18.294;2023-04-01T09:15:54;101209.41;;;4.86;50.64
76311;BME280;65120;59.304;18.294;2023-04-01T09:18:59;101219.78;;;4.89;50.68
76311;BME280;65120;59.304;18.294;2023-04-01T09:27:55;101231.91;;;4.90;48.68
76311;BME280;65120;59.304;18.294;2023-04-01T09:30:38;101208.44;;;4.76;49.26
76311;BME280;65120;59.304;18.294;2023-04-01T09:36:38;101224.22;;;4.97;48.26
76311;BME280;65120;59.304;18.294;2023-04-01T09:39:23;101223.38;;;4.99;47.65
76311;BME280;65120;59.304;18.294;2023-04-01T09:42:01;101221.69;;;5.02;48.17
76311;BME280;65120;59.304;18.294;2023-04-01T09:44:34;101232.06;;;5.05;49.00
76311;BME280;65120;59.304;18.294;2023-04-01T09:47:15;101233.00;;;5.10;47.68
76311;BME280;65120;59.304;18.294;2023-04-01T09:49:55;101241.66;;;5.14;48.30
76311;BME280;65120;59.304;18.294;2023-04-01T09:52:35;101230.47;;;5.16;47.06
76311;BME280;65120;59.304;18.294;2023-04-01T09:55:19;101239.16;;;5.18;46.56
76311;BME280;65120;59.304;18.294;2023-04-01T10:04:17;101242.69;;;5.27;47.85
76311;BME280;65120;59.304;18.294;2023-04-01T10:07:30;101237.56;;;5.33;48.05
76311;BME280;65120;59.304;18.294;2023-04-01T10:10:30;101241.06;;;5.36;47.96
76311;BME280;65120;59.304;18.294;2023-04-01T10:13:39;101241.97;;;5.41;47.82
76311;BME280;65120;59.304;18.294;2023-04-01T10:16:40;101238.53;;;5.43;47.53
76311;BME280;65120;59.304;18.294;2023-04-01T10:22:37;101260.16;;;5.49;46.79
76311;BME280;65120;59.304;18.294;2023-04-01T10:25:23;101254.13;;;5.47;46.17
76311;BME280;65120;59.304;18.294;2023-04-01T10:28:12;101256.69;;;5.46;45.99
76311;BME280;65120;59.304;18.294;2023-04-01T10:31:06;101270.50;;;5.46;46.86
76311;BME280;65120;59.304;18.294;2023-04-01T10:36:58;101263.63;;;5.48;44.99
76311;BME280;65120;59.304;18.294;2023-04-01T10:46:15;101270.50;;;5.45;46.05
76311;BME280;65120;59.304;18.294;2023-04-01T10:49:05;101269.63;;;5.44;46.15
76311;BME280;65120;59.304;18.294;2023-04-01T10:52:06;101270.50;;;5.46;46.24
76311;BME280;65120;59.304;18.294;2023-04-01T10:54:49;101278.28;;;5.45;45.43
76311;BME280;65120;59.304;18.294;2023-04-01T10:57:45;101284.31;;;5.44;44.96
76311;BME280;65120;59.304;18.294;2023-04-01T11:00:27;101280.84;;;5.41;44.86
76311;BME280;65120;59.304;18.294;2023-04-01T11:06:38;101282.56;;;5.41;45.52
76311;BME280;65120;59.304;18.294;2023-04-01T11:09:56;101285.13;;;5.39;44.59
76311;BME280;65120;59.304;18.294;2023-04-01T11:12:58;101292.91;;;5.38;45.12
76311;BME280;65120;59.304;18.294;2023-04-01T11:19:03;101292.91;;;5.38;45.36
76311;BME280;65120;59.304;18.294;2023-04-01T11:22:01;101298.94;;;5.40;44.76
76311;BME280;65120;59.304;18.294;2023-04-01T11:25:11;101293.72;;;5.37;44.91
76311;BME280;65120;59.304;18.294;2023-04-01T11:27:56;101298.03;;;5.36;44.90
76311;BME280;65120;59.304;18.294;2023-04-01T11:30:39;101298.06;;;5.38;44.86
76311;BME280;65120;59.304;18.294;2023-04-01T11:33:16;101307.53;;;5.37;45.18
76311;BME280;65120;59.304;18.294;2023-04-01T11:35:59;101307.53;;;5.37;44.78
76311;BME280;65120;59.304;18.294;2023-04-01T11:38:57;101303.25;;;5.38;44.60
76311;BME280;65120;59.304;18.294;2023-04-01T11:41:34;101297.19;;;5.36;43.16
76311;BME280;65120;59.304;18.294;2023-04-01T11:44:17;101307.53;;;5.36;43.69
76311;BME280;65120;59.304;18.294;2023-04-01T11:47:05;101301.47;;;5.34;41.57
76311;BME280;65120;59.304;18.294;2023-04-01T11:49:50;101316.97;;;5.31;41.85
76311;BME280;65120;59.304;18.294;2023-04-01T11:52:37;101313.50;;;5.29;42.53
76311;BME280;65120;59.304;18.294;2023-04-01T11:55:36;101314.34;;;5.28;43.04
76311;BME280;65120;59.304;18.294;2023-04-01T11:58:49;101316.94;;;5.28;43.72
76311;BME280;65120;59.304;18.294;2023-04-01T12:01:30;101316.94;;;5.28;43.31
76311;BME280;65120;59.304;18.294;2023-04-01T12:04:26;101328.16;;;5.28;43.89
76311;BME280;65120;59.304;18.294;2023-04-01T12:07:05;101328.16;;;5.27;43.98
76311;BME280;65120;59.304;18.294;2023-04-01T12:09:41;101323.00;;;5.28;43.69
76311;BME280;65120;59.304;18.294;2023-04-01T12:12:18;101317.78;;;5.25;44.35
76311;BME280;65120;59.304;18.294;2023-04-01T12:14:58;101328.13;;;5.25;44.63
76311;BME280;65120;59.304;18.294;2023-04-01T12:17:31;101322.09;;;5.25;44.65
76311;BME280;65120;59.304;18.294;2023-04-01T12:20:21;101327.28;;;5.26;44.97
76311;BME280;65120;59.304;18.294;2023-04-01T12:22:57;101322.09;;;5.25;44.10
76311;BME280;65120;59.304;18.294;2023-04-01T12:25:52;101323.81;;;5.24;44.44
76311;BME280;65120;59.304;18.294;2023-04-01T12:28:28;101339.31;;;5.23;44.40
76311;BME280;65120;59.304;18.294;2023-04-01T12:31:06;101345.34;;;5.20;43.99
76311;BME280;65120;59.304;18.294;2023-04-01T12:33:52;101348.78;;;5.19;44.27
76311;BME280;65120;59.304;18.294;2023-04-01T12:36:35;101347.91;;;5.18;44.02
76311;BME280;65120;59.304;18.294;2023-04-01T12:39:21;101349.66;;;5.18;44.51
76311;BME280;65120;59.304;18.294;2023-04-01T12:41:57;101348.78;;;5.19;44.65
76311;BME280;65120;59.304;18.294;2023-04-01T12:44:38;101338.31;;;5.11;44.77
76311;BME280;65120;59.304;18.294;2023-04-01T12:47:19;101366.06;;;5.20;44.66
76311;BME280;65120;59.304;18.294;2023-04-01T12:49:57;101364.31;;;5.19;44.10
76311;BME280;65120;59.304;18.294;2023-04-01T12:52:40;101369.47;;;5.17;43.67
76311;BME280;65120;59.304;18.294;2023-04-01T12:55:41;101369.47;;;5.17;44.36
76311;BME280;65120;59.304;18.294;2023-04-01T12:58:24;101387.59;;;5.16;44.50
76311;BME280;65120;59.304;18.294;2023-04-01T13:04:25;101385.75;;;5.09;44.26
76311;BME280;65120;59.304;18.294;2023-04-01T13:10:02;101389.13;;;5.03;44.41
76311;BME280;65120;59.304;18.294;2023-04-01T13:15:24;101395.13;;;4.99;45.13
76311;BME280;65120;59.304;18.294;2023-04-01T13:18:00;101405.44;;;4.96;45.35
76311;BME280;65120;59.304;18.294;2023-04-01T13:20:36;101406.25;;;4.95;45.31
76311;BME280;65120;59.304;18.294;2023-04-01T13:23:15;101408.84;;;4.93;45.46
76311;BME280;65120;59.304;18.294;2023-04-01T13:25:53;101410.56;;;4.93;45.33
76311;BME280;65120;59.304;18.294;2023-04-01T13:28:24;101410.56;;;4.93;46.01
76311;BME280;65120;59.304;18.294;2023-04-01T13:30:59;101424.34;;;4.92;45.35
76311;BME280;65120;59.304;18.294;2023-04-01T13:33:36;101422.63;;;4.91;45.52
76311;BME280;65120;59.304;18.294;2023-04-01T13:36:17;101423.44;;;4.87;45.75
76311;BME280;65120;59.304;18.294;2023-04-01T13:39:11;101427.72;;;4.85;45.74
76311;BME280;65120;59.304;18.294;2023-04-01T13:41:56;101424.25;;;4.84;46.14
76311;BME280;65120;59.304;18.294;2023-04-01T13:44:31;101436.28;;;4.84;45.60
76311;BME280;65120;59.304;18.294;2023-04-01T13:47:18;101428.53;;;4.84;45.73
76311;BME280;65120;59.304;18.294;2023-04-01T13:50:12;101438.88;;;4.84;45.59
76311;BME280;65120;59.304;18.294;2023-04-01T13:52:57;101437.16;;;4.83;43.96
76311;BME280;65120;59.304;18.294;2023-04-01T13:55:45;101432.78;;;4.79;44.12
76311;BME280;65120;59.304;18.294;2023-04-01T13:58:38;101437.97;;;4.79;44.45
76311;BME280;65120;59.304;18.294;2023-04-01T14:01:13;101442.25;;;4.77;44.34
76311;BME280;65120;59.304;18.294;2023-04-01T14:04:11;101447.41;;;4.77;44.69
76311;BME280;65120;59.304;18.294;2023-04-01T14:06:56;101447.41;;;4.77;44.88
76311;BME280;65120;59.304;18.294;2023-04-01T14:09:35;101450.88;;;4.76;44.57
76311;BME280;65120;59.304;18.294;2023-04-01T14:12:14;101448.28;;;4.77;44.99
76311;BME280;65120;59.304;18.294;2023-04-01T14:14:54;101448.28;;;4.76;44.35
76311;BME280;65120;59.304;18.294;2023-04-01T14:17:35;101459.44;;;4.74;43.29
76311;BME280;65120;59.304;18.294;2023-04-01T14:20:22;101470.63;;;4.70;42.62
76311;BME280;65120;59.304;18.294;2023-04-01T14:28:53;101473.09;;;4.64;42.18
76311;BME280;65120;59.304;18.294;2023-04-01T14:31:38;101472.16;;;4.61;41.58